2 juli 2022

Tijd Code Weer Temp. Zicht Plafond Wind METAR/SPECI
9:20 a.m.
V
66 °F 6¼ mi+ - 190° 190° 4 kt METAR EDDG 020720Z 19004KT 140V240 CAVOK 19/11 Q1023 NOSIG
8:50 a.m.
V
64 °F 6¼ mi+ - 150° 150° 4 kt METAR EDDG 020650Z 15004KT 100V220 CAVOK 18/12 Q1023 BECMG 21007KT
8:20 a.m.
V
63 °F 6¼ mi+ - 140° 140° 4 kt METAR EDDG 020620Z 14004KT 100V190 CAVOK 17/11 Q1023 NOSIG
7:50 a.m.
V
59 °F 6¼ mi+ - 130° 130° 5 kt METAR EDDG 020550Z 13005KT 100V170 CAVOK 15/11 Q1022 NOSIG
7:20 a.m.
V
57 °F 6¼ mi+ - 130° 130° 4 kt METAR EDDG 020520Z 13004KT 090V180 CAVOK 14/11 Q1022 NOSIG
6:50 a.m.
V
55 °F 6¼ mi+ - 130° 130° 3 kt METAR EDDG 020450Z 13003KT 100V160 CAVOK 13/10 Q1022 NOSIG
6:20 a.m.
V
52 °F 6¼ mi+ - 120° 120° 3 kt METAR EDDG 020420Z 12003KT 080V180 CAVOK 11/10 Q1022 NOSIG
5:50 a.m.
V
50 °F 6¼ mi+ - Var Var 2 kt METAR EDDG 020350Z VRB02KT CAVOK 10/10 Q1022 NOSIG
5:20 a.m.
V
50 °F 6¼ mi+ - Var Var 2 kt METAR EDDG 020320Z VRB02KT CAVOK 10/10 Q1022 NOSIG
4:50 a.m.
V
50 °F 6¼ mi+ - 140° 140° 3 kt METAR EDDG 020250Z 14003KT CAVOK 10/09 Q1022 NOSIG
4:20 a.m.
V
52 °F 6¼ mi+ - Var Var 2 kt METAR EDDG 020220Z VRB02KT CAVOK 11/10 Q1022 NOSIG
3:50 a.m.
V
52 °F 6¼ mi+ - 150° 150° 4 kt METAR EDDG 020150Z 15004KT CAVOK 11/10 Q1022 NOSIG
3:20 a.m.
V
52 °F 6¼ mi+ - 140° 140° 3 kt METAR EDDG 020120Z 14003KT CAVOK 11/10 Q1022 NOSIG
2:50 a.m.
V
52 °F 6¼ mi+ - Var Var 2 kt METAR EDDG 020050Z VRB02KT CAVOK 11/10 Q1022 NOSIG
2:20 a.m.
V
54 °F 6¼ mi+ - Var Var 1 kt METAR EDDG 020020Z VRB01KT CAVOK 12/10 Q1022 NOSIG
1:50 a.m.
V
54 °F 6¼ mi+ - Var Var 2 kt METAR EDDG 012350Z VRB02KT CAVOK 12/10 Q1022 NOSIG
1:20 a.m.
V
55 °F 6¼ mi+ - Var Var 1 kt METAR EDDG 012320Z VRB01KT CAVOK 13/10 Q1022 NOSIG
12:50 a.m.
V
55 °F 6¼ mi+ - Var Var 1 kt METAR EDDG 012250Z VRB01KT CAVOK 13/10 Q1022 NOSIG
12:20 a.m.
V
57 °F 6¼ mi+ - 160° 160° 3 kt METAR EDDG 012220Z 16003KT CAVOK 14/11 Q1022 NOSIG

1 juli 2022

Tijd Code Weer Temp. Zicht Plafond Wind METAR/SPECI
11:50 p.m.
V
59 °F 6¼ mi+ - 180° 180° 4 kt METAR EDDG 012150Z 18004KT 150V220 CAVOK 15/10 Q1021 NOSIG
11:20 p.m.
V
63 °F 6¼ mi+ - 230° 230° 3 kt METAR EDDG 012120Z 23003KT 120V270 CAVOK 17/10 Q1021 NOSIG
10:50 p.m.
V
64 °F 6¼ mi+ - 250° 250° 4 kt METAR EDDG 012050Z 25004KT CAVOK 18/10 Q1021 NOSIG
10:20 p.m.
V
64 °F 6¼ mi+ - 250° 250° 5 kt METAR EDDG 012020Z 25005KT CAVOK 18/10 Q1020 NOSIG
9:50 p.m.
V
64 °F 6¼ mi+ - 260° 260° 3 kt METAR EDDG 011950Z 26003KT CAVOK 18/10 Q1020 NOSIG
9:20 p.m.
V
64 °F 6¼ mi+ - 280° 280° 5 kt METAR EDDG 011920Z 28005KT CAVOK 18/09 Q1020 NOSIG
8:50 p.m.
V
66 °F 6¼ mi+ - 280° 280° 9 kt METAR EDDG 011850Z 28009KT CAVOK 19/09 Q1019 NOSIG
8:20 p.m.
V
70 °F 6¼ mi+ - 260° 260° 8 kt METAR EDDG 011820Z 26008KT CAVOK 21/09 Q1019 NOSIG
7:50 p.m.
V
72 °F 6¼ mi+ - 270° 270° 11 kt METAR EDDG 011750Z 27011KT 240V330 CAVOK 22/09 Q1019 NOSIG
7:20 p.m.
V
72 °F 6¼ mi+ - 250° 250° 10 kt METAR EDDG 011720Z 25010KT CAVOK 22/09 Q1019 NOSIG
6:50 p.m.
V
70 °F 6¼ mi+ - 230° 230° 10 kt METAR EDDG 011650Z 23010KT 190V260 CAVOK 21/08 Q1018 NOSIG
6:20 p.m.
V
72 °F 6¼ mi+ - 250° 250° 12 kt METAR EDDG 011620Z 25012KT 230V290 CAVOK 22/07 Q1018 NOSIG
5:50 p.m.
V
72 °F 6¼ mi+ - 250° 250° 13 kt METAR EDDG 011550Z 25013KT 210V280 CAVOK 22/08 Q1018 NOSIG
5:20 p.m.
V
72 °F 6¼ mi+ - 260° 260° 10 kt METAR EDDG 011520Z 26010KT 220V310 CAVOK 22/08 Q1018 NOSIG
4:50 p.m.
V
70 °F 6¼ mi+ - 230° 230° 12 kt METAR EDDG 011450Z 23012KT 200V260 CAVOK 21/08 Q1018 NOSIG
4:20 p.m.
V
70 °F 6¼ mi+ - 250° 250° 12 kt METAR EDDG 011420Z 25012KT 230V290 9999 SCT048 21/09 Q1018 NOSIG
3:50 p.m.
V
72 °F 6¼ mi+ - 230° 230° 13 kt METAR EDDG 011350Z 23013KT 200V270 9999 SCT047 22/08 Q1018 NOSIG
3:20 p.m.
V
70 °F 6¼ mi+ - 250° 250° 13 kt METAR EDDG 011320Z 25013KT 9999 SCT046 21/09 Q1017 NOSIG
2:50 p.m.
V
70 °F 6¼ mi+ - 230° 230° 11 kt METAR EDDG 011250Z 23011KT 190V260 9999 SCT041 21/09 Q1017 NOSIG
2:20 p.m.
V
68 °F 6¼ mi+ - 240° 240° 11 kt METAR EDDG 011220Z 24011KT 190V270 9999 SCT035 20/10 Q1017 NOSIG
1:50 p.m.
V
68 °F 6¼ mi+ - 240° 240° 10 kt METAR EDDG 011150Z 24010KT 210V280 9999 SCT034 20/11 Q1017 NOSIG
1:20 p.m.
V
68 °F 6¼ mi+ - 230° 230° 10 kt METAR EDDG 011120Z 23010KT 180V270 9999 SCT032 20/10 Q1018 NOSIG
12:50 p.m.
V
64 °F 6¼ mi+ - 230° 230° 10 kt METAR EDDG 011050Z 23010KT 190V250 9999 SCT032 18/10 Q1018 NOSIG
12:20 p.m.
V
64 °F 6¼ mi+ - 230° 230° 8 kt METAR EDDG 011020Z 23008KT 180V330 9999 SCT027 18/10 Q1017 NOSIG
11:50 a.m.
V
64 °F 6¼ mi+ - 210° 210° 9 kt METAR EDDG 010950Z 21009KT 170V250 9999 SCT023 18/11 Q1018 NOSIG
11:20 a.m.
V
63 °F 6¼ mi+ - 240° 240° 9 kt METAR EDDG 010920Z 24009KT 9999 SCT023 17/11 Q1018 NOSIG
10:50 a.m.
V
63 °F 6¼ mi+ - 240° 240° 9 kt METAR EDDG 010850Z 24009KT 210V270 9999 SCT017 17/11 Q1017 NOSIG
10:20 a.m.
V
61 °F 6¼ mi+ - 230° 230° 8 kt METAR EDDG 010820Z 23008KT 9999 SCT016 16/11 Q1017 NOSIG
9:50 a.m.
V
59 °F 6¼ mi+ - 240° 240° 8 kt METAR EDDG 010750Z 24008KT 9999 SCT016 15/11 Q1017 NOSIG
9:20 a.m.
M
59 °F 6¼ mi+ 1.500 ft 240° 240° 11 kt METAR EDDG 010720Z 24011KT 9999 BKN015 15/11 Q1017 NOSIG
8:50 a.m.
V
59 °F 6¼ mi+ - 240° 240° 9 kt METAR EDDG 010650Z 24009KT 9999 SCT014 15/12 Q1016 TEMPO BKN010
8:20 a.m.
V
59 °F 6¼ mi+ - 240° 240° 10 kt METAR EDDG 010620Z 24010KT 9999 FEW012 15/12 Q1016 TEMPO BKN010
7:50 a.m.
V
59 °F 6¼ mi+ - 240° 240° 8 kt METAR EDDG 010550Z 24008KT 210V270 9999 FEW009 SCT013 15/12 Q1016 TEMPO BKN010
7:20 a.m.
V
59 °F 6¼ mi+ - 240° 240° 7 kt METAR EDDG 010520Z 24007KT 9999 FEW011 SCT043 15/13 Q1016 NOSIG
6:50 a.m.
V
59 °F 6¼ mi+ - 230° 230° 5 kt METAR EDDG 010450Z 23005KT 9999 -RA FEW011 SCT043 15/13 Q1016 NOSIG
6:20 a.m.
V
57 °F 6¼ mi+ 4.000 ft 230° 230° 7 kt METAR EDDG 010420Z 23007KT 200V260 9999 -RA FEW011 BKN040 14/13 Q1016 NOSIG
5:50 a.m.
V
59 °F 6¼ mi+ 3.200 ft 240° 240° 8 kt METAR EDDG 010350Z 24008KT 9999 -RA FEW013 SCT015 BKN032 15/13 Q1016 NOSIG
5:20 a.m.
M
59 °F 6¼ mi+ 2.800 ft 240° 240° 8 kt METAR EDDG 010320Z 24008KT 9999 FEW012 BKN028 15/13 Q1015 NOSIG
4:50 a.m.
M
59 °F 6¼ mi+ 2.300 ft 240° 240° 8 kt METAR EDDG 010250Z 24008KT 200V260 9999 FEW013 BKN023 15/13 Q1015 NOSIG
4:20 a.m.
M
59 °F 6¼ mi+ 1.400 ft 250° 250° 8 kt METAR EDDG 010220Z 25008KT 9999 SCT011 BKN014 15/13 Q1014 BECMG SCT014
3:50 a.m.
M
59 °F 6¼ mi+ 1.300 ft 250° 250° 6 kt METAR EDDG 010150Z 25006KT 9999 FEW009 BKN013 15/13 Q1014 TEMPO BKN008
3:20 a.m.
M
59 °F 6¼ mi+ 1.100 ft 260° 260° 7 kt METAR EDDG 010120Z 26007KT 9999 BKN011 BKN024 15/13 Q1014 TEMPO BKN008
2:50 a.m.
M
59 °F 6¼ mi+ 1.100 ft 250° 250° 10 kt METAR EDDG 010050Z 25010KT 9999 BKN011 15/13 Q1014 TEMPO BKN008
2:20 a.m.
M
59 °F 6¼ mi+ 1.100 ft 250° 250° 9 kt METAR EDDG 010020Z 25009KT 220V280 9999 BKN011 15/13 Q1014 TEMPO BKN008
1:50 a.m.
M
59 °F 6¼ mi+ 1.100 ft 250° 250° 10 kt METAR EDDG 302350Z 25010KT 210V280 9999 BKN011 15/13 Q1014 TEMPO BKN008
1:20 a.m.
M
59 °F 6¼ mi+ 2.400 ft 260° 260° 11 kt METAR EDDG 302320Z 26011KT 230V290 9999 SCT012 BKN024 15/13 Q1013 TEMPO BKN012
12:50 a.m.
I
59 °F 6¼ mi+ 800 ft 270° 270° 11 kt METAR EDDG 302250Z 27011KT 9999 BKN008 15/14 Q1013 BECMG BKN012
12:20 a.m.
I
59 °F 6¼ mi+ 800 ft 260° 260° 13 kt METAR EDDG 302220Z 26013KT 9999 FEW006 BKN008 15/14 Q1013 BECMG BKN012

30 juni 2022

Tijd Code Weer Temp. Zicht Plafond Wind METAR/SPECI
11:50 p.m.
I
61 °F 6¼ mi+ 800 ft 260° 260° 13 kt METAR EDDG 302150Z 26013KT 210V280 9999 BKN008 16/15 Q1012 BECMG BKN012
11:20 p.m.
I
63 °F 6¼ mi+ 900 ft 260° 260° 13 kt METAR EDDG 302120Z 26013KT 9999 FEW006 BKN009 17/16 Q1012 NOSIG
10:50 p.m.
M
63 °F 6¼ mi+ 1.200 ft 270° 270° 12 kt METAR EDDG 302050Z 27012KT 9999 SCT008 BKN012 17/16 Q1011 TEMPO BKN008
10:20 p.m.
V
64 °F 6¼ mi+ - 280° 280° 10 kt METAR EDDG 302020Z 28010KT 9999 -SHRA FEW011 FEW070CB 18/17 Q1010 RETSRA TEMPO BKN010
9:50 p.m.
V
66 °F 6¼ mi+ - 210° 210° 6 kt METAR EDDG 301950Z 21006KT 150V260 9999 TSRA FEW015 SCT060CB 19/17 Q1011 BECMG NSW
9:20 p.m.
I
66 °F 2⅛ mi 3.800 ft 240° 240° 19 kt METAR EDDG 301920Z 24019KT 3500 +TSRA FEW008 BKN038CB 19/18 Q1009 BECMG 25010KT 9999 NSW
8:50 p.m.
V
75 °F 6¼ mi+ - 230° 230° 18 - 31 kt METAR EDDG 301850Z 23018G31KT 150V280 9999 VCTS FEW035 FEW047CB 24/15 Q1009 TEMPO 26025G45KT 3000 TSGRRA BKN020CB
8:20 p.m.
V
81 °F 6¼ mi+ - 090° 090° 4 kt METAR EDDG 301820Z 09004KT 030V150 9999 FEW045CB 27/16 Q1007 TEMPO 26025G45KT 3000 TSGRRA BKN020CB
7:50 p.m.
V
82 °F 6¼ mi+ - 090° 090° 6 kt METAR EDDG 301750Z 09006KT 040V180 CAVOK 28/15 Q1007 TEMPO FM1830 26025G45KT 3000 TSGRRA BKN020CB
7:20 p.m.
V
82 °F 6¼ mi+ - 090° 090° 8 kt METAR EDDG 301720Z 09008KT 030V160 CAVOK 28/15 Q1007 NOSIG
6:50 p.m.
V
86 °F 6¼ mi+ - Var Var 9 - 21 kt METAR EDDG 301650Z VRB09G21KT CAVOK 30/15 Q1007 NOSIG
6:20 p.m.
V
86 °F 6¼ mi+ - 040° 040° 6 kt METAR EDDG 301620Z 04006KT 350V090 CAVOK 30/13 Q1008 NOSIG
5:50 p.m.
V
88 °F 6¼ mi+ - Var Var 5 kt METAR EDDG 301550Z VRB05KT CAVOK 31/14 Q1008 NOSIG
5:20 p.m.
V
90 °F 6¼ mi+ - Var Var 4 kt METAR EDDG 301520Z VRB04KT 9999 FEW050TCU 32/14 Q1009 NOSIG
4:50 p.m.
V
86 °F 6¼ mi+ - 360° 360° 8 kt METAR EDDG 301450Z 36008KT 310V020 9999 FEW050TCU 30/14 Q1009 NOSIG
4:20 p.m.
V
88 °F 6¼ mi+ - Var Var 4 kt METAR EDDG 301420Z VRB04KT 9999 FEW050TCU 31/14 Q1009 NOSIG
3:50 p.m.
V
88 °F 6¼ mi+ - Var Var 5 kt METAR EDDG 301350Z VRB05KT 9999 FEW050TCU 31/14 Q1010 NOSIG
3:20 p.m.
V
90 °F 6¼ mi+ - Var Var 5 kt METAR EDDG 301320Z VRB05KT 9999 FEW050TCU 32/13 Q1010 NOSIG
2:50 p.m.
V
86 °F 6¼ mi+ - Var Var 5 kt METAR EDDG 301250Z VRB05KT 9999 FEW050TCU 30/14 Q1010 NOSIG
2:20 p.m.
V
88 °F 6¼ mi+ - Var Var 7 kt METAR EDDG 301220Z VRB07KT CAVOK 31/14 Q1010 NOSIG
1:50 p.m.
V
84 °F 6¼ mi+ - 250° 250° 5 kt METAR EDDG 301150Z 25005KT 170V310 CAVOK 29/15 Q1010 NOSIG
1:20 p.m.
V
82 °F 6¼ mi+ - Var Var 3 kt METAR EDDG 301120Z VRB03KT CAVOK 28/14 Q1010 NOSIG
12:50 p.m.
V
86 °F 6¼ mi+ - 210° 210° 4 kt METAR EDDG 301050Z 21004KT 150V300 CAVOK 30/14 Q1011 NOSIG
12:20 p.m.
V
86 °F 6¼ mi+ - Var Var 3 kt METAR EDDG 301020Z VRB03KT CAVOK 30/15 Q1011 NOSIG
11:50 a.m.
V
84 °F 6¼ mi+ - 220° 220° 6 kt METAR EDDG 300950Z 22006KT 140V270 9999 FEW043 29/16 Q1011 NOSIG
11:20 a.m.
V
82 °F 6¼ mi+ - 340° 340° 3 kt METAR EDDG 300920Z 34003KT 9999 FEW044 28/17 Q1011 NOSIG
10:50 a.m.
V
81 °F 6¼ mi+ - Var Var 3 kt METAR EDDG 300850Z VRB03KT CAVOK 27/17 Q1011 NOSIG
10:20 a.m.
V
79 °F 6¼ mi+ - Var Var 2 kt METAR EDDG 300820Z VRB02KT CAVOK 26/17 Q1011 NOSIG
9:50 a.m.
V
77 °F 6¼ mi+ - 160° 160° 3 kt METAR EDDG 300750Z 16003KT 110V250 CAVOK 25/17 Q1011 NOSIG
9:20 a.m.
V
75 °F 6¼ mi+ - 090° 090° 4 kt METAR EDDG 300720Z 09004KT 040V150 CAVOK 24/17 Q1011 NOSIG
Oudere gegevens

Installeer onze app

Gemakkelijke toegang tot al het luchtvaartweer op je mobiele telefoon en tablet.
Met veel functies die niet op de website beschikbaar zijn, zoals offline ondersteuning en een persoonlijke lijst van vliegvelden.

Met cookies volgen wij en derde partijen jouw internetgedrag binnen onze site. Als je verdergaat gaan we ervan uit dat je dit goedvindt. Meer info